sensor_id;sensor_type;location;lat;lon;timestamp;pressure;altitude;pressure_sealevel;temperature;humidity
6132;BME280;3097;42.692;23.278;2022-12-29T00:02:09;95930.22;;;6.86;87.94
6132;BME280;3097;42.692;23.278;2022-12-29T00:04:34;95936.94;;;6.87;87.98
6132;BME280;3097;42.692;23.278;2022-12-29T00:07:00;95902.03;;;6.64;88.05
6132;BME280;3097;42.692;23.278;2022-12-29T00:09:26;95947.34;;;6.86;88.19
6132;BME280;3097;42.692;23.278;2022-12-29T00:11:51;95943.34;;;6.91;88.14
6132;BME280;3097;42.692;23.278;2022-12-29T00:14:17;95942.00;;;6.95;87.99
6132;BME280;3097;42.692;23.278;2022-12-29T00:17:02;95935.91;;;6.96;88.10
6132;BME280;3097;42.692;23.278;2022-12-29T00:19:27;95933.78;;;7.00;87.81
6132;BME280;3097;42.692;23.278;2022-12-29T00:22:13;95933.13;;;6.83;87.89
6132;BME280;3097;42.692;23.278;2022-12-29T00:24:58;95931.97;;;6.86;87.68
6132;BME280;3097;42.692;23.278;2022-12-29T00:27:27;95955.63;;;6.96;88.12
6132;BME280;3097;42.692;23.278;2022-12-29T00:30:14;95948.91;;;6.95;87.72
6132;BME280;3097;42.692;23.278;2022-12-29T00:32:59;95930.81;;;6.74;88.23
6132;BME280;3097;42.692;23.278;2022-12-29T00:36:18;95955.69;;;6.88;88.19
6132;BME280;3097;42.692;23.278;2022-12-29T00:38:49;95955.84;;;6.86;88.49
6132;BME280;3097;42.692;23.278;2022-12-29T00:41:34;95958.56;;;6.85;88.44
6132;BME280;3097;42.692;23.278;2022-12-29T00:44:18;95941.22;;;6.72;88.51
6132;BME280;3097;42.692;23.278;2022-12-29T00:46:43;95966.41;;;6.91;88.51
6132;BME280;3097;42.692;23.278;2022-12-29T00:49:11;95968.59;;;6.94;88.33
6132;BME280;3097;42.692;23.278;2022-12-29T00:51:57;95970.66;;;6.99;88.04
6132;BME280;3097;42.692;23.278;2022-12-29T00:54:23;95961.44;;;6.90;88.40
6132;BME280;3097;42.692;23.278;2022-12-29T00:56:50;95965.72;;;6.97;88.38
6132;BME280;3097;42.692;23.278;2022-12-29T00:59:17;95965.88;;;6.96;88.18
6132;BME280;3097;42.692;23.278;2022-12-29T01:01:43;95965.06;;;6.95;88.05
6132;BME280;3097;42.692;23.278;2022-12-29T01:04:09;95961.03;;;7.01;87.67
6132;BME280;3097;42.692;23.278;2022-12-29T01:06:36;95968.38;;;7.04;87.72
6132;BME280;3097;42.692;23.278;2022-12-29T01:09:03;95955.72;;;7.03;87.53
6132;BME280;3097;42.692;23.278;2022-12-29T01:11:47;95956.53;;;7.03;87.44
6132;BME280;3097;42.692;23.278;2022-12-29T01:14:12;95959.16;;;6.95;87.37
6132;BME280;3097;42.692;23.278;2022-12-29T01:16:38;95950.31;;;6.97;87.27
6132;BME280;3097;42.692;23.278;2022-12-29T01:19:03;95949.81;;;7.02;86.99
6132;BME280;3097;42.692;23.278;2022-12-29T01:21:29;95928.28;;;6.88;87.00
6132;BME280;3097;42.692;23.278;2022-12-29T01:23:55;95943.06;;;7.01;86.76
6132;BME280;3097;42.692;23.278;2022-12-29T01:26:20;95952.72;;;6.99;86.77
6132;BME280;3097;42.692;23.278;2022-12-29T01:28:46;95952.88;;;6.97;87.05
6132;BME280;3097;42.692;23.278;2022-12-29T01:31:13;95785.22;;;5.94;86.63
6132;BME280;3097;42.692;23.278;2022-12-29T01:33:40;95939.28;;;6.97;86.73
6132;BME280;3097;42.692;23.278;2022-12-29T01:36:07;95935.63;;;6.91;86.70
6132;BME280;3097;42.692;23.278;2022-12-29T01:38:34;95928.06;;;6.98;86.57
6132;BME280;3097;42.692;23.278;2022-12-29T01:41:00;95929.59;;;6.84;87.32
6132;BME280;3097;42.692;23.278;2022-12-29T01:46:30;95928.38;;;6.95;86.83
6132;BME280;3097;42.692;23.278;2022-12-29T01:51:35;95919.47;;;6.91;86.71
6132;BME280;3097;42.692;23.278;2022-12-29T01:54:02;95929.53;;;6.92;86.69
6132;BME280;3097;42.692;23.278;2022-12-29T01:56:30;95927.16;;;6.91;86.65
6132;BME280;3097;42.692;23.278;2022-12-29T01:59:06;95919.84;;;6.80;87.07
6132;BME280;3097;42.692;23.278;2022-12-29T02:01:33;95924.28;;;6.86;87.39
6132;BME280;3097;42.692;23.278;2022-12-29T02:03:59;95910.19;;;6.90;87.16
6132;BME280;3097;42.692;23.278;2022-12-29T02:06:42;95902.19;;;6.85;86.93
6132;BME280;3097;42.692;23.278;2022-12-29T02:09:10;95905.84;;;6.90;86.73
6132;BME280;3097;42.692;23.278;2022-12-29T02:11:36;95902.19;;;6.85;86.97
6132;BME280;3097;42.692;23.278;2022-12-29T02:14:13;95911.22;;;6.81;87.31
6132;BME280;3097;42.692;23.278;2022-12-29T02:31:31;95908.13;;;6.85;87.14
6132;BME280;3097;42.692;23.278;2022-12-29T02:37:04;95913.28;;;6.77;87.35
6132;BME280;3097;42.692;23.278;2022-12-29T02:44:59;95910.94;;;6.76;87.47
6132;BME280;3097;42.692;23.278;2022-12-29T02:47:36;95915.41;;;6.74;87.71
6132;BME280;3097;42.692;23.278;2022-12-29T02:50:38;95911.91;;;6.75;87.56
6132;BME280;3097;42.692;23.278;2022-12-29T02:53:07;95904.47;;;6.80;87.26
6132;BME280;3097;42.692;23.278;2022-12-29T02:55:34;95901.53;;;6.68;87.67
6132;BME280;3097;42.692;23.278;2022-12-29T02:58:26;95908.16;;;6.77;87.54
6132;BME280;3097;42.692;23.278;2022-12-29T03:06:02;95900.69;;;6.76;87.29
6132;BME280;3097;42.692;23.278;2022-12-29T03:08:34;95892.88;;;6.69;87.69
6132;BME280;3097;42.692;23.278;2022-12-29T03:11:06;95893.66;;;6.70;87.64
6132;BME280;3097;42.692;23.278;2022-12-29T03:13:57;95894.34;;;6.64;87.97
6132;BME280;3097;42.692;23.278;2022-12-29T03:16:45;95877.75;;;6.59;88.11
6132;BME280;3097;42.692;23.278;2022-12-29T03:19:18;95885.38;;;6.68;88.22
6132;BME280;3097;42.692;23.278;2022-12-29T03:21:50;95883.88;;;6.73;88.06
6132;BME280;3097;42.692;23.278;2022-12-29T03:24:56;95862.97;;;6.61;87.88
6132;BME280;3097;42.692;23.278;2022-12-29T03:27:48;95894.03;;;6.67;87.74
6132;BME280;3097;42.692;23.278;2022-12-29T03:30:11;95885.44;;;6.59;87.82
6132;BME280;3097;42.692;23.278;2022-12-29T03:32:42;95882.88;;;6.59;87.59
6132;BME280;3097;42.692;23.278;2022-12-29T03:35:12;95866.59;;;6.30;87.50
6132;BME280;3097;42.692;23.278;2022-12-29T03:37:45;95893.00;;;6.53;87.43
6132;BME280;3097;42.692;23.278;2022-12-29T03:40:14;95889.69;;;6.44;87.25
6132;BME280;3097;42.692;23.278;2022-12-29T03:42:40;95888.44;;;6.40;87.79
6132;BME280;3097;42.692;23.278;2022-12-29T03:45:07;95886.91;;;6.31;88.16
6132;BME280;3097;42.692;23.278;2022-12-29T03:47:34;95890.06;;;6.33;88.14
6132;BME280;3097;42.692;23.278;2022-12-29T03:49:59;95895.72;;;6.29;87.86
6132;BME280;3097;42.692;23.278;2022-12-29T03:52:25;95888.75;;;6.14;87.88
6132;BME280;3097;42.692;23.278;2022-12-29T03:54:50;95899.31;;;6.11;87.94
6132;BME280;3097;42.692;23.278;2022-12-29T03:57:15;95904.03;;;6.00;88.62
6132;BME280;3097;42.692;23.278;2022-12-29T03:59:41;95904.19;;;5.98;88.40
6132;BME280;3097;42.692;23.278;2022-12-29T04:02:06;95901.81;;;5.80;88.80
6132;BME280;3097;42.692;23.278;2022-12-29T04:04:32;95911.38;;;5.87;89.20
6132;BME280;3097;42.692;23.278;2022-12-29T04:06:57;95909.84;;;5.77;89.51
6132;BME280;3097;42.692;23.278;2022-12-29T04:09:22;95898.50;;;5.72;89.01
6132;BME280;3097;42.692;23.278;2022-12-29T04:11:48;95911.94;;;5.74;89.30
6132;BME280;3097;42.692;23.278;2022-12-29T04:14:13;95895.19;;;5.63;89.16
6132;BME280;3097;42.692;23.278;2022-12-29T04:16:39;95906.38;;;5.70;88.91
6132;BME280;3097;42.692;23.278;2022-12-29T04:19:05;95911.16;;;5.65;88.89
6132;BME280;3097;42.692;23.278;2022-12-29T04:21:31;95911.66;;;5.61;88.98
6132;BME280;3097;42.692;23.278;2022-12-29T04:23:56;95907.22;;;5.47;89.29
6132;BME280;3097;42.692;23.278;2022-12-29T04:26:22;95900.06;;;5.34;90.01
6132;BME280;3097;42.692;23.278;2022-12-29T04:28:47;95915.06;;;5.45;89.99
6132;BME280;3097;42.692;23.278;2022-12-29T04:31:12;95924.19;;;5.39;89.91
6132;BME280;3097;42.692;23.278;2022-12-29T04:33:38;95925.16;;;5.38;89.93
6132;BME280;3097;42.692;23.278;2022-12-29T04:36:03;95926.91;;;5.38;89.82
6132;BME280;3097;42.692;23.278;2022-12-29T04:38:29;95925.63;;;5.34;89.88
6132;BME280;3097;42.692;23.278;2022-12-29T04:40:54;95928.34;;;5.32;89.73
6132;BME280;3097;42.692;23.278;2022-12-29T04:43:20;95939.19;;;5.26;90.12
6132;BME280;3097;42.692;23.278;2022-12-29T04:45:46;95935.38;;;5.22;89.86
6132;BME280;3097;42.692;23.278;2022-12-29T04:48:12;95909.06;;;4.97;89.79
6132;BME280;3097;42.692;23.278;2022-12-29T04:50:39;95941.97;;;5.09;89.93
6132;BME280;3097;42.692;23.278;2022-12-29T04:53:04;95943.22;;;5.04;89.99
6132;BME280;3097;42.692;23.278;2022-12-29T04:55:30;95946.56;;;5.05;90.00
6132;BME280;3097;42.692;23.278;2022-12-29T04:57:55;95943.88;;;4.98;90.18
6132;BME280;3097;42.692;23.278;2022-12-29T05:00:21;95936.03;;;4.92;90.16
6132;BME280;3097;42.692;23.278;2022-12-29T05:02:46;95956.97;;;4.95;89.97
6132;BME280;3097;42.692;23.278;2022-12-29T05:05:12;95954.09;;;4.90;90.45
6132;BME280;3097;42.692;23.278;2022-12-29T05:07:37;95942.09;;;4.83;90.69
6132;BME280;3097;42.692;23.278;2022-12-29T05:10:03;95949.94;;;4.97;90.73
6132;BME280;3097;42.692;23.278;2022-12-29T05:12:33;95948.66;;;4.93;91.03
6132;BME280;3097;42.692;23.278;2022-12-29T05:14:59;95953.28;;;4.98;91.47
6132;BME280;3097;42.692;23.278;2022-12-29T05:20:40;95928.22;;;4.85;91.68
6132;BME280;3097;42.692;23.278;2022-12-29T05:23:05;95952.34;;;5.07;91.38
6132;BME280;3097;42.692;23.278;2022-12-29T05:25:31;95952.19;;;5.09;91.39
6132;BME280;3097;42.692;23.278;2022-12-29T05:27:56;95937.50;;;5.02;91.69
6132;BME280;3097;42.692;23.278;2022-12-29T05:30:21;95945.16;;;5.11;92.06
6132;BME280;3097;42.692;23.278;2022-12-29T05:32:47;95943.88;;;5.06;92.68
6132;BME280;3097;42.692;23.278;2022-12-29T05:35:12;95937.78;;;5.16;92.25
6132;BME280;3097;42.692;23.278;2022-12-29T05:37:38;95948.66;;;5.26;92.01
6132;BME280;3097;42.692;23.278;2022-12-29T05:40:03;95952.78;;;5.35;91.64
6132;BME280;3097;42.692;23.278;2022-12-29T05:42:29;95950.88;;;5.37;91.71
6132;BME280;3097;42.692;23.278;2022-12-29T05:44:54;95942.88;;;5.40;91.33
6132;BME280;3097;42.692;23.278;2022-12-29T05:47:20;95953.56;;;5.43;91.48
6132;BME280;3097;42.692;23.278;2022-12-29T05:49:45;95952.16;;;5.41;91.51
6132;BME280;3097;42.692;23.278;2022-12-29T05:52:43;95953.72;;;5.42;92.02
6132;BME280;3097;42.692;23.278;2022-12-29T05:55:09;95957.88;;;5.51;91.60
6132;BME280;3097;42.692;23.278;2022-12-29T05:57:36;95957.72;;;5.53;91.51
6132;BME280;3097;42.692;23.278;2022-12-29T06:00:04;95953.72;;;5.50;91.60
6132;BME280;3097;42.692;23.278;2022-12-29T06:02:29;95956.09;;;5.60;91.35
6132;BME280;3097;42.692;23.278;2022-12-29T06:04:55;95958.00;;;5.58;91.63
6132;BME280;3097;42.692;23.278;2022-12-29T06:07:20;95959.75;;;5.65;91.61
6132;BME280;3097;42.692;23.278;2022-12-29T06:09:45;95960.09;;;5.70;91.05
6132;BME280;3097;42.692;23.278;2022-12-29T06:12:11;95971.72;;;5.73;91.36
6132;BME280;3097;42.692;23.278;2022-12-29T06:14:36;95969.16;;;5.81;90.81
6132;BME280;3097;42.692;23.278;2022-12-29T06:17:04;95954.78;;;5.72;91.14
6132;BME280;3097;42.692;23.278;2022-12-29T06:19:30;95974.44;;;5.88;91.41
6132;BME280;3097;42.692;23.278;2022-12-29T06:21:55;95961.63;;;5.88;91.15
6132;BME280;3097;42.692;23.278;2022-12-29T06:24:21;95969.00;;;5.91;91.25
6132;BME280;3097;42.692;23.278;2022-12-29T06:26:47;95966.72;;;5.96;90.98
6132;BME280;3097;42.692;23.278;2022-12-29T06:29:12;95926.47;;;5.73;90.86
6132;BME280;3097;42.692;23.278;2022-12-29T06:31:42;95971.81;;;6.04;90.87
6132;BME280;3097;42.692;23.278;2022-12-29T06:34:08;95971.94;;;6.10;90.64
6132;BME280;3097;42.692;23.278;2022-12-29T06:36:34;95960.31;;;6.08;90.84
6132;BME280;3097;42.692;23.278;2022-12-29T06:38:59;95971.78;;;6.12;91.04
6132;BME280;3097;42.692;23.278;2022-12-29T06:41:25;95967.94;;;6.16;91.38
6132;BME280;3097;42.692;23.278;2022-12-29T06:43:50;95974.31;;;6.20;90.94
6132;BME280;3097;42.692;23.278;2022-12-29T06:46:16;95970.81;;;6.21;90.60
6132;BME280;3097;42.692;23.278;2022-12-29T06:48:41;95977.78;;;6.35;90.29
6132;BME280;3097;42.692;23.278;2022-12-29T06:51:08;95978.38;;;6.45;90.52
6132;BME280;3097;42.692;23.278;2022-12-29T06:53:33;95979.63;;;6.49;90.56
6132;BME280;3097;42.692;23.278;2022-12-29T06:55:59;95963.00;;;6.45;89.77
6132;BME280;3097;42.692;23.278;2022-12-29T06:58:24;95974.13;;;6.60;89.47
6132;BME280;3097;42.692;23.278;2022-12-29T07:00:50;95985.41;;;6.74;89.22
6132;BME280;3097;42.692;23.278;2022-12-29T07:03:15;95972.72;;;6.81;88.93
6132;BME280;3097;42.692;23.278;2022-12-29T07:05:41;95989.97;;;6.87;88.42
6132;BME280;3097;42.692;23.278;2022-12-29T07:08:06;95987.41;;;6.87;88.43
6132;BME280;3097;42.692;23.278;2022-12-29T07:10:32;95985.31;;;6.90;88.17
6132;BME280;3097;42.692;23.278;2022-12-29T07:12:57;95986.91;;;6.91;88.01
6132;BME280;3097;42.692;23.278;2022-12-29T07:15:23;95973.41;;;6.97;87.34
6132;BME280;3097;42.692;23.278;2022-12-29T07:17:48;95978.75;;;7.11;86.54
6132;BME280;3097;42.692;23.278;2022-12-29T07:20:14;95979.06;;;7.08;86.03
6132;BME280;3097;42.692;23.278;2022-12-29T07:22:40;95974.75;;;7.08;86.28
6132;BME280;3097;42.692;23.278;2022-12-29T07:25:06;95976.44;;;7.16;86.05
6132;BME280;3097;42.692;23.278;2022-12-29T07:27:31;95976.69;;;7.29;85.61
6132;BME280;3097;42.692;23.278;2022-12-29T07:29:56;95982.34;;;7.39;85.37
6132;BME280;3097;42.692;23.278;2022-12-29T07:32:22;95985.72;;;7.39;84.88
6132;BME280;3097;42.692;23.278;2022-12-29T07:34:47;95987.31;;;7.41;84.15
6132;BME280;3097;42.692;23.278;2022-12-29T07:37:15;95968.44;;;7.33;83.58
6132;BME280;3097;42.692;23.278;2022-12-29T07:39:40;95983.59;;;7.43;84.19
6132;BME280;3097;42.692;23.278;2022-12-29T07:42:06;95989.47;;;7.52;84.64
6132;BME280;3097;42.692;23.278;2022-12-29T07:44:31;95990.78;;;7.48;84.34
6132;BME280;3097;42.692;23.278;2022-12-29T07:46:57;95987.78;;;7.59;84.20
6132;BME280;3097;42.692;23.278;2022-12-29T07:49:23;95969.47;;;7.62;83.81
6132;BME280;3097;42.692;23.278;2022-12-29T07:51:48;95990.63;;;7.78;83.72
6132;BME280;3097;42.692;23.278;2022-12-29T07:54:13;95988.63;;;7.89;83.22
6132;BME280;3097;42.692;23.278;2022-12-29T07:56:39;95996.03;;;7.98;82.94
6132;BME280;3097;42.692;23.278;2022-12-29T07:59:05;95993.38;;;8.06;82.54
6132;BME280;3097;42.692;23.278;2022-12-29T08:01:31;95988.88;;;8.08;82.26
6132;BME280;3097;42.692;23.278;2022-12-29T08:03:56;95997.28;;;8.17;81.88
6132;BME280;3097;42.692;23.278;2022-12-29T08:06:22;95979.56;;;8.07;81.97
6132;BME280;3097;42.692;23.278;2022-12-29T08:08:47;95978.25;;;8.11;82.01
6132;BME280;3097;42.692;23.278;2022-12-29T08:11:13;96006.06;;;8.37;81.42
6132;BME280;3097;42.692;23.278;2022-12-29T08:13:38;96002.69;;;8.37;81.67
6132;BME280;3097;42.692;23.278;2022-12-29T08:16:04;96001.63;;;8.46;81.83
6132;BME280;3097;42.692;23.278;2022-12-29T08:18:29;95995.50;;;8.47;81.53
6132;BME280;3097;42.692;23.278;2022-12-29T08:20:55;95995.22;;;8.57;81.47
6132;BME280;3097;42.692;23.278;2022-12-29T08:23:20;95998.41;;;8.44;82.41
6132;BME280;3097;42.692;23.278;2022-12-29T08:25:46;96003.53;;;8.59;81.03
6132;BME280;3097;42.692;23.278;2022-12-29T08:28:11;95995.28;;;8.63;81.37
6132;BME280;3097;42.692;23.278;2022-12-29T08:30:36;96000.41;;;8.78;80.56
6132;BME280;3097;42.692;23.278;2022-12-29T08:33:02;95999.38;;;8.93;80.07
6132;BME280;3097;42.692;23.278;2022-12-29T08:35:27;95999.72;;;8.90;78.48
6132;BME280;3097;42.692;23.278;2022-12-29T08:37:53;95992.06;;;8.97;79.01
6132;BME280;3097;42.692;23.278;2022-12-29T08:40:18;95992.00;;;9.12;78.25
6132;BME280;3097;42.692;23.278;2022-12-29T08:42:44;95994.63;;;9.18;78.47
6132;BME280;3097;42.692;23.278;2022-12-29T08:45:09;95988.63;;;9.32;78.83
6132;BME280;3097;42.692;23.278;2022-12-29T08:47:35;95992.97;;;9.53;78.71
6132;BME280;3097;42.692;23.278;2022-12-29T08:50:00;95992.81;;;9.89;76.99
6132;BME280;3097;42.692;23.278;2022-12-29T08:52:26;95990.50;;;10.07;75.58
6132;BME280;3097;42.692;23.278;2022-12-29T08:54:51;95992.81;;;10.24;75.98
6132;BME280;3097;42.692;23.278;2022-12-29T08:57:20;95988.56;;;10.44;74.92
6132;BME280;3097;42.692;23.278;2022-12-29T08:59:45;95983.09;;;10.73;74.09
6132;BME280;3097;42.692;23.278;2022-12-29T09:02:11;95981.16;;;11.08;73.55
6132;BME280;3097;42.692;23.278;2022-12-29T09:04:37;95971.25;;;11.25;71.73
6132;BME280;3097;42.692;23.278;2022-12-29T09:07:02;95882.72;;;10.72;71.44
6132;BME280;3097;42.692;23.278;2022-12-29T09:09:28;95971.25;;;11.38;71.14
6132;BME280;3097;42.692;23.278;2022-12-29T09:11:54;95969.66;;;11.44;71.04
6132;BME280;3097;42.692;23.278;2022-12-29T09:14:20;95969.28;;;11.53;70.93
6132;BME280;3097;42.692;23.278;2022-12-29T09:16:53;95973.63;;;11.66;70.33
6132;BME280;3097;42.692;23.278;2022-12-29T09:19:37;95969.47;;;11.78;69.98
6132;BME280;3097;42.692;23.278;2022-12-29T09:22:03;95971.44;;;11.89;70.58
6132;BME280;3097;42.692;23.278;2022-12-29T09:24:28;95969.03;;;11.88;68.47
6132;BME280;3097;42.692;23.278;2022-12-29T09:26:54;95967.47;;;11.93;68.65
6132;BME280;3097;42.692;23.278;2022-12-29T09:29:19;95960.50;;;12.00;68.44
6132;BME280;3097;42.692;23.278;2022-12-29T09:31:44;95956.88;;;12.08;68.33
6132;BME280;3097;42.692;23.278;2022-12-29T09:34:10;95961.84;;;12.03;67.44
6132;BME280;3097;42.692;23.278;2022-12-29T09:36:35;95962.84;;;12.09;67.58
6132;BME280;3097;42.692;23.278;2022-12-29T09:39:01;95955.91;;;12.09;67.62
6132;BME280;3097;42.692;23.278;2022-12-29T09:41:30;95950.50;;;12.17;68.13
6132;BME280;3097;42.692;23.278;2022-12-29T09:46:32;95915.09;;;12.11;67.51
6132;BME280;3097;42.692;23.278;2022-12-29T09:49:07;95950.25;;;12.32;67.54
6132;BME280;3097;42.692;23.278;2022-12-29T09:51:36;95941.16;;;12.16;67.47
6132;BME280;3097;42.692;23.278;2022-12-29T09:56:56;95931.06;;;12.01;67.26
6132;BME280;3097;42.692;23.278;2022-12-29T09:59:41;95923.75;;;11.72;67.29
6132;BME280;3097;42.692;23.278;2022-12-29T10:02:16;95927.16;;;11.53;68.74
6132;BME280;3097;42.692;23.278;2022-12-29T10:04:48;95924.78;;;11.45;68.63
6132;BME280;3097;42.692;23.278;2022-12-29T10:09:53;95919.84;;;11.23;69.83
6132;BME280;3097;42.692;23.278;2022-12-29T10:15:02;95912.91;;;11.11;69.86
6132;BME280;3097;42.692;23.278;2022-12-29T10:23:17;95908.72;;;11.16;70.36
6132;BME280;3097;42.692;23.278;2022-12-29T10:25:46;95901.59;;;11.12;71.08
6132;BME280;3097;42.692;23.278;2022-12-29T10:28:21;95901.19;;;11.08;70.70
6132;BME280;3097;42.692;23.278;2022-12-29T10:30:49;95897.78;;;11.14;70.73
6132;BME280;3097;42.692;23.278;2022-12-29T10:33:19;95904.16;;;11.18;70.71
6132;BME280;3097;42.692;23.278;2022-12-29T10:35:47;95891.25;;;11.05;71.13
6132;BME280;3097;42.692;23.278;2022-12-29T10:39:21;95899.00;;;11.12;71.10
6132;BME280;3097;42.692;23.278;2022-12-29T10:41:36;95892.06;;;11.12;71.13
6132;BME280;3097;42.692;23.278;2022-12-29T10:44:03;95880.72;;;11.13;70.30
6132;BME280;3097;42.692;23.278;2022-12-29T10:46:32;95883.50;;;11.18;69.57
6132;BME280;3097;42.692;23.278;2022-12-29T10:48:59;95865.66;;;10.97;70.06
6132;BME280;3097;42.692;23.278;2022-12-29T10:51:29;95878.75;;;10.96;70.73
6132;BME280;3097;42.692;23.278;2022-12-29T10:56:33;95873.41;;;11.04;70.48
6132;BME280;3097;42.692;23.278;2022-12-29T10:59:06;95862.06;;;10.98;70.81
6132;BME280;3097;42.692;23.278;2022-12-29T11:01:39;95862.06;;;10.92;71.25
6132;BME280;3097;42.692;23.278;2022-12-29T11:04:28;95858.91;;;10.96;71.07
6132;BME280;3097;42.692;23.278;2022-12-29T11:06:57;95855.72;;;10.88;71.68
6132;BME280;3097;42.692;23.278;2022-12-29T11:09:28;95854.16;;;10.73;71.51
6132;BME280;3097;42.692;23.278;2022-12-29T11:11:55;95853.72;;;10.57;72.25
6132;BME280;3097;42.692;23.278;2022-12-29T11:14:26;95852.34;;;10.61;72.46
6132;BME280;3097;42.692;23.278;2022-12-29T11:17:01;95847.41;;;10.66;72.45
6132;BME280;3097;42.692;23.278;2022-12-29T11:19:32;95845.81;;;10.65;72.63
6132;BME280;3097;42.692;23.278;2022-12-29T11:22:22;95843.00;;;10.53;72.79
6132;BME280;3097;42.692;23.278;2022-12-29T11:24:49;95835.50;;;10.58;72.11
6132;BME280;3097;42.692;23.278;2022-12-29T11:29:46;95839.00;;;10.24;74.10
6132;BME280;3097;42.692;23.278;2022-12-29T11:32:18;95806.19;;;9.92;74.90
6132;BME280;3097;42.692;23.278;2022-12-29T11:34:43;95841.00;;;10.22;74.17
6132;BME280;3097;42.692;23.278;2022-12-29T11:37:12;95839.63;;;10.39;74.33
6132;BME280;3097;42.692;23.278;2022-12-29T11:42:16;95828.34;;;10.60;73.32
6132;BME280;3097;42.692;23.278;2022-12-29T11:44:45;95835.50;;;10.65;73.14
6132;BME280;3097;42.692;23.278;2022-12-29T11:47:19;95836.28;;;10.65;73.58
6132;BME280;3097;42.692;23.278;2022-12-29T11:49:50;95795.81;;;10.53;72.92
6132;BME280;3097;42.692;23.278;2022-12-29T11:52:22;95819.22;;;10.51;73.62
6132;BME280;3097;42.692;23.278;2022-12-29T11:54:48;95824.00;;;10.67;73.34
6132;BME280;3097;42.692;23.278;2022-12-29T11:57:16;95806.13;;;10.53;73.64
6132;BME280;3097;42.692;23.278;2022-12-29T11:59:49;95819.59;;;10.55;73.88
6132;BME280;3097;42.692;23.278;2022-12-29T12:02:24;95830.34;;;10.65;73.28
6132;BME280;3097;42.692;23.278;2022-12-29T12:04:56;95824.97;;;10.66;73.22
6132;BME280;3097;42.692;23.278;2022-12-29T12:07:38;95825.78;;;10.73;73.16
6132;BME280;3097;42.692;23.278;2022-12-29T12:10:05;95823.19;;;10.67;73.08
6132;BME280;3097;42.692;23.278;2022-12-29T12:12:39;95822.22;;;10.81;72.63
6132;BME280;3097;42.692;23.278;2022-12-29T12:15:16;95805.72;;;10.75;72.81
6132;BME280;3097;42.692;23.278;2022-12-29T12:18:02;95808.91;;;10.84;72.86
6132;BME280;3097;42.692;23.278;2022-12-29T12:20:38;95810.66;;;10.90;72.87
6132;BME280;3097;42.692;23.278;2022-12-29T12:23:44;95808.69;;;10.99;72.85
6132;BME280;3097;42.692;23.278;2022-12-29T12:31:17;95783.09;;;10.97;72.03
6132;BME280;3097;42.692;23.278;2022-12-29T12:33:47;95793.78;;;11.07;72.22
6132;BME280;3097;42.692;23.278;2022-12-29T12:45:16;95800.72;;;11.13;71.76
6132;BME280;3097;42.692;23.278;2022-12-29T12:50:27;95792.97;;;11.13;71.90
6132;BME280;3097;42.692;23.278;2022-12-29T13:04:08;95798.75;;;11.15;72.02
6132;BME280;3097;42.692;23.278;2022-12-29T13:12:27;95789.63;;;11.06;72.10
6132;BME280;3097;42.692;23.278;2022-12-29T13:23:32;95792.19;;;11.06;72.41
6132;BME280;3097;42.692;23.278;2022-12-29T13:26:42;95795.19;;;11.03;72.38
6132;BME280;3097;42.692;23.278;2022-12-29T13:31:54;95769.41;;;10.77;72.98
6132;BME280;3097;42.692;23.278;2022-12-29T13:34:25;95797.97;;;11.08;72.68
6132;BME280;3097;42.692;23.278;2022-12-29T13:36:59;95795.78;;;11.05;72.70
6132;BME280;3097;42.692;23.278;2022-12-29T13:39:34;95802.53;;;11.00;72.99
6132;BME280;3097;42.692;23.278;2022-12-29T13:42:02;95804.16;;;10.88;73.48
6132;BME280;3097;42.692;23.278;2022-12-29T13:44:34;95806.91;;;10.93;73.66
6132;BME280;3097;42.692;23.278;2022-12-29T13:47:14;95801.75;;;10.86;73.81
6132;BME280;3097;42.692;23.278;2022-12-29T13:49:44;95797.22;;;10.81;73.79
6132;BME280;3097;42.692;23.278;2022-12-29T13:52:16;95802.16;;;10.83;74.21
6132;BME280;3097;42.692;23.278;2022-12-29T13:54:57;95795.63;;;10.87;73.83
6132;BME280;3097;42.692;23.278;2022-12-29T14:00:20;95804.34;;;10.93;73.56
6132;BME280;3097;42.692;23.278;2022-12-29T14:07:44;95801.56;;;10.94;73.68
6132;BME280;3097;42.692;23.278;2022-12-29T14:10:32;95794.81;;;10.86;74.02
6132;BME280;3097;42.692;23.278;2022-12-29T14:15:39;95781.94;;;10.67;74.41
6132;BME280;3097;42.692;23.278;2022-12-29T14:18:14;95811.47;;;10.84;74.33
6132;BME280;3097;42.692;23.278;2022-12-29T14:23:35;95821.59;;;10.79;74.51
6132;BME280;3097;42.692;23.278;2022-12-29T14:28:55;95812.88;;;10.67;74.87
6132;BME280;3097;42.692;23.278;2022-12-29T14:36:36;95831.13;;;10.59;75.65
6132;BME280;3097;42.692;23.278;2022-12-29T14:39:03;95830.53;;;10.57;75.64
6132;BME280;3097;42.692;23.278;2022-12-29T14:41:33;95825.97;;;10.59;75.59
6132;BME280;3097;42.692;23.278;2022-12-29T14:44:16;95831.69;;;10.47;75.96
6132;BME280;3097;42.692;23.278;2022-12-29T14:46:48;95831.50;;;10.42;76.04
6132;BME280;3097;42.692;23.278;2022-12-29T14:49:23;95833.28;;;10.35;76.10
6132;BME280;3097;42.692;23.278;2022-12-29T14:51:52;95825.13;;;10.25;76.43
6132;BME280;3097;42.692;23.278;2022-12-29T14:57:05;95839.00;;;10.24;76.52
6132;BME280;3097;42.692;23.278;2022-12-29T14:59:32;95796.50;;;10.00;76.65
6132;BME280;3097;42.692;23.278;2022-12-29T15:02:01;95824.88;;;10.14;77.27
6132;BME280;3097;42.692;23.278;2022-12-29T15:04:32;95828.63;;;10.11;77.44
6132;BME280;3097;42.692;23.278;2022-12-29T15:06:59;95818.94;;;10.13;77.39
6132;BME280;3097;42.692;23.278;2022-12-29T15:14:58;95811.59;;;10.10;77.71
6132;BME280;3097;42.692;23.278;2022-12-29T15:17:26;95812.72;;;9.94;78.02
6132;BME280;3097;42.692;23.278;2022-12-29T15:19:53;95815.94;;;10.03;77.98
6132;BME280;3097;42.692;23.278;2022-12-29T15:22:19;95812.53;;;9.96;78.09
6132;BME280;3097;42.692;23.278;2022-12-29T15:24:44;95820.28;;;10.02;78.07
6132;BME280;3097;42.692;23.278;2022-12-29T15:27:14;95807.38;;;9.96;78.07
6132;BME280;3097;42.692;23.278;2022-12-29T15:29:42;95816.88;;;9.89;78.22
6132;BME280;3097;42.692;23.278;2022-12-29T15:34:40;95812.09;;;9.79;78.65
6132;BME280;3097;42.692;23.278;2022-12-29T15:37:06;95816.44;;;9.79;78.69
6132;BME280;3097;42.692;23.278;2022-12-29T15:39:32;95811.44;;;9.70;78.90
6132;BME280;3097;42.692;23.278;2022-12-29T15:42:07;95814.63;;;9.66;79.11
6132;BME280;3097;42.692;23.278;2022-12-29T15:44:40;95823.09;;;9.60;79.50
6132;BME280;3097;42.692;23.278;2022-12-29T15:47:26;95821.25;;;9.47;79.92
6132;BME280;3097;42.692;23.278;2022-12-29T15:50:06;95811.06;;;9.32;80.71